Kilgore, Nebraska
Current Conditions -  °F | °C
As of 6:52 PM on Sunday 25 Jan 2015 (Local Time) from KVTN Reporting Station
Overcast Overcast  
Wind Chill: 32°   Ceiling: 8000
Heat Index: 36°   Visibility: 10mi
Dew Point: 28°   Wind: 5mph
Humidity: 73%   Direction: 220°SW
Pressure: 29.99"   Gusts: NA
Location:  42.94°N, 100.96°W
Report Text: KVTN 260152Z AUTO 22004KT 10SM OVC080 02/M02 A2999 RMK AO2 SLP178 T00221022
Loading
Personal Weather Stations






























Interactive Weather Map New forecast layout! Learn more

10-Day Weather Forecast

Advertisements
Track Severe Weather on mobile